sensor_id;sensor_type;location;lat;lon;timestamp;P1;durP1;ratioP1;P2;durP2;ratioP2
40781;SDS011;26493;51.938;7.626;2023-11-21T00:00:06;8.10;;;5.10;;
40781;SDS011;26493;51.938;7.626;2023-11-21T00:02:37;7.20;;;4.30;;
40781;SDS011;26493;51.938;7.626;2023-11-21T00:05:06;8.00;;;4.82;;
40781;SDS011;26493;51.938;7.626;2023-11-21T00:07:33;7.53;;;4.50;;
40781;SDS011;26493;51.938;7.626;2023-11-21T00:09:59;7.75;;;4.60;;
40781;SDS011;26493;51.938;7.626;2023-11-21T00:12:25;7.60;;;4.50;;
40781;SDS011;26493;51.938;7.626;2023-11-21T00:14:51;7.78;;;4.63;;
40781;SDS011;26493;51.938;7.626;2023-11-21T00:17:17;7.72;;;4.60;;
40781;SDS011;26493;51.938;7.626;2023-11-21T00:19:43;7.85;;;4.68;;
40781;SDS011;26493;51.938;7.626;2023-11-21T00:22:09;9.43;;;5.85;;
40781;SDS011;26493;51.938;7.626;2023-11-21T00:24:35;8.80;;;5.30;;
40781;SDS011;26493;51.938;7.626;2023-11-21T00:27:01;8.50;;;5.10;;
40781;SDS011;26493;51.938;7.626;2023-11-21T00:29:27;8.10;;;4.80;;
40781;SDS011;26493;51.938;7.626;2023-11-21T00:31:53;8.80;;;5.20;;
40781;SDS011;26493;51.938;7.626;2023-11-21T00:34:19;8.20;;;4.90;;
40781;SDS011;26493;51.938;7.626;2023-11-21T00:36:45;8.02;;;4.78;;
40781;SDS011;26493;51.938;7.626;2023-11-21T00:39:11;8.23;;;4.90;;
40781;SDS011;26493;51.938;7.626;2023-11-21T00:41:37;7.97;;;4.78;;
40781;SDS011;26493;51.938;7.626;2023-11-21T00:44:03;8.10;;;4.80;;
40781;SDS011;26493;51.938;7.626;2023-11-21T00:46:29;8.13;;;4.80;;
40781;SDS011;26493;51.938;7.626;2023-11-21T00:48:55;8.35;;;5.38;;
40781;SDS011;26493;51.938;7.626;2023-11-21T00:51:22;8.00;;;4.75;;
40781;SDS011;26493;51.938;7.626;2023-11-21T00:53:48;8.02;;;4.82;;
40781;SDS011;26493;51.938;7.626;2023-11-21T00:56:14;7.82;;;4.70;;
40781;SDS011;26493;51.938;7.626;2023-11-21T00:58:40;7.68;;;4.55;;
40781;SDS011;26493;51.938;7.626;2023-11-21T01:01:08;7.57;;;4.50;;
40781;SDS011;26493;51.938;7.626;2023-11-21T01:03:34;7.38;;;4.38;;
40781;SDS011;26493;51.938;7.626;2023-11-21T01:06:00;9.20;;;6.25;;
40781;SDS011;26493;51.938;7.626;2023-11-21T01:08:26;7.80;;;4.60;;
40781;SDS011;26493;51.938;7.626;2023-11-21T01:10:53;7.80;;;4.70;;
40781;SDS011;26493;51.938;7.626;2023-11-21T01:13:19;8.10;;;4.80;;
40781;SDS011;26493;51.938;7.626;2023-11-21T01:15:46;7.88;;;4.70;;
40781;SDS011;26493;51.938;7.626;2023-11-21T01:18:12;8.00;;;4.80;;
40781;SDS011;26493;51.938;7.626;2023-11-21T01:20:38;7.90;;;4.68;;
40781;SDS011;26493;51.938;7.626;2023-11-21T01:23:05;8.77;;;5.57;;
40781;SDS011;26493;51.938;7.626;2023-11-21T01:25:31;8.20;;;4.80;;
40781;SDS011;26493;51.938;7.626;2023-11-21T01:27:57;7.78;;;4.60;;
40781;SDS011;26493;51.938;7.626;2023-11-21T01:30:23;7.70;;;4.60;;
40781;SDS011;26493;51.938;7.626;2023-11-21T01:32:48;7.57;;;4.50;;
40781;SDS011;26493;51.938;7.626;2023-11-21T01:35:15;7.30;;;4.40;;
40781;SDS011;26493;51.938;7.626;2023-11-21T01:37:41;7.40;;;4.40;;
40781;SDS011;26493;51.938;7.626;2023-11-21T01:40:07;7.85;;;4.70;;
40781;SDS011;26493;51.938;7.626;2023-11-21T01:42:38;7.30;;;4.40;;
40781;SDS011;26493;51.938;7.626;2023-11-21T01:45:04;8.18;;;4.85;;
40781;SDS011;26493;51.938;7.626;2023-11-21T01:47:32;8.10;;;4.82;;
40781;SDS011;26493;51.938;7.626;2023-11-21T01:49:59;7.43;;;4.40;;
40781;SDS011;26493;51.938;7.626;2023-11-21T01:52:25;7.20;;;4.30;;
40781;SDS011;26493;51.938;7.626;2023-11-21T01:54:52;7.30;;;4.38;;
40781;SDS011;26493;51.938;7.626;2023-11-21T01:57:19;7.47;;;4.47;;
40781;SDS011;26493;51.938;7.626;2023-11-21T01:59:45;7.65;;;4.50;;
40781;SDS011;26493;51.938;7.626;2023-11-21T02:02:13;7.55;;;4.50;;
40781;SDS011;26493;51.938;7.626;2023-11-21T02:04:41;8.00;;;4.72;;
40781;SDS011;26493;51.938;7.626;2023-11-21T02:07:07;7.60;;;4.50;;
40781;SDS011;26493;51.938;7.626;2023-11-21T02:09:33;7.72;;;4.65;;
40781;SDS011;26493;51.938;7.626;2023-11-21T02:12:03;7.63;;;4.55;;
40781;SDS011;26493;51.938;7.626;2023-11-21T02:14:30;7.78;;;4.60;;
40781;SDS011;26493;51.938;7.626;2023-11-21T02:16:57;8.23;;;4.85;;
40781;SDS011;26493;51.938;7.626;2023-11-21T02:19:23;7.93;;;4.70;;
40781;SDS011;26493;51.938;7.626;2023-11-21T02:21:51;9.30;;;5.15;;
40781;SDS011;26493;51.938;7.626;2023-11-21T02:24:20;8.85;;;5.25;;
40781;SDS011;26493;51.938;7.626;2023-11-21T02:26:46;8.18;;;4.90;;
40781;SDS011;26493;51.938;7.626;2023-11-21T02:29:13;8.20;;;4.82;;
40781;SDS011;26493;51.938;7.626;2023-11-21T02:31:41;8.25;;;4.90;;
40781;SDS011;26493;51.938;7.626;2023-11-21T02:34:16;8.70;;;5.13;;
40781;SDS011;26493;51.938;7.626;2023-11-21T02:36:42;8.15;;;4.85;;
40781;SDS011;26493;51.938;7.626;2023-11-21T02:39:09;8.50;;;5.18;;
40781;SDS011;26493;51.938;7.626;2023-11-21T02:41:36;7.60;;;4.53;;
40781;SDS011;26493;51.938;7.626;2023-11-21T02:44:03;7.30;;;4.40;;
40781;SDS011;26493;51.938;7.626;2023-11-21T02:46:31;7.90;;;4.70;;
40781;SDS011;26493;51.938;7.626;2023-11-21T02:48:58;7.50;;;4.50;;
40781;SDS011;26493;51.938;7.626;2023-11-21T02:51:24;7.50;;;4.47;;
40781;SDS011;26493;51.938;7.626;2023-11-21T02:53:50;7.80;;;4.60;;
40781;SDS011;26493;51.938;7.626;2023-11-21T02:56:16;7.75;;;4.63;;
40781;SDS011;26493;51.938;7.626;2023-11-21T02:58:42;7.88;;;4.70;;
40781;SDS011;26493;51.938;7.626;2023-11-21T03:01:09;8.50;;;5.00;;
40781;SDS011;26493;51.938;7.626;2023-11-21T03:03:36;8.27;;;4.93;;
40781;SDS011;26493;51.938;7.626;2023-11-21T03:06:05;7.47;;;4.47;;
40781;SDS011;26493;51.938;7.626;2023-11-21T03:08:31;7.95;;;4.70;;
40781;SDS011;26493;51.938;7.626;2023-11-21T03:10:57;7.60;;;4.50;;
40781;SDS011;26493;51.938;7.626;2023-11-21T03:13:23;7.68;;;4.57;;
40781;SDS011;26493;51.938;7.626;2023-11-21T03:15:49;7.50;;;4.50;;
40781;SDS011;26493;51.938;7.626;2023-11-21T03:18:15;7.75;;;4.55;;
40781;SDS011;26493;51.938;7.626;2023-11-21T03:20:42;8.68;;;5.70;;
40781;SDS011;26493;51.938;7.626;2023-11-21T03:23:11;7.32;;;4.40;;
40781;SDS011;26493;51.938;7.626;2023-11-21T03:25:37;7.95;;;5.05;;
40781;SDS011;26493;51.938;7.626;2023-11-21T03:28:03;7.30;;;4.40;;
40781;SDS011;26493;51.938;7.626;2023-11-21T03:30:29;7.28;;;4.30;;
40781;SDS011;26493;51.938;7.626;2023-11-21T03:32:55;7.40;;;4.30;;
40781;SDS011;26493;51.938;7.626;2023-11-21T03:35:21;7.40;;;4.40;;
40781;SDS011;26493;51.938;7.626;2023-11-21T03:37:48;7.07;;;4.20;;
40781;SDS011;26493;51.938;7.626;2023-11-21T03:40:14;7.65;;;4.50;;
40781;SDS011;26493;51.938;7.626;2023-11-21T03:42:40;7.30;;;4.30;;
40781;SDS011;26493;51.938;7.626;2023-11-21T03:45:07;7.20;;;4.30;;
40781;SDS011;26493;51.938;7.626;2023-11-21T03:47:33;7.22;;;4.30;;
40781;SDS011;26493;51.938;7.626;2023-11-21T03:49:59;7.28;;;4.30;;
40781;SDS011;26493;51.938;7.626;2023-11-21T03:52:25;6.70;;;3.97;;
40781;SDS011;26493;51.938;7.626;2023-11-21T03:54:53;6.88;;;4.10;;
40781;SDS011;26493;51.938;7.626;2023-11-21T03:57:20;6.82;;;4.10;;
40781;SDS011;26493;51.938;7.626;2023-11-21T03:59:46;6.80;;;4.00;;
40781;SDS011;26493;51.938;7.626;2023-11-21T04:02:12;6.63;;;3.92;;
40781;SDS011;26493;51.938;7.626;2023-11-21T04:04:38;7.10;;;4.20;;
40781;SDS011;26493;51.938;7.626;2023-11-21T04:07:04;7.97;;;5.20;;
40781;SDS011;26493;51.938;7.626;2023-11-21T04:09:30;7.05;;;4.20;;
40781;SDS011;26493;51.938;7.626;2023-11-21T04:11:56;9.05;;;6.15;;
40781;SDS011;26493;51.938;7.626;2023-11-21T04:14:22;7.30;;;4.30;;
40781;SDS011;26493;51.938;7.626;2023-11-21T04:16:48;7.50;;;4.50;;
40781;SDS011;26493;51.938;7.626;2023-11-21T04:19:14;7.93;;;5.28;;
40781;SDS011;26493;51.938;7.626;2023-11-21T04:21:41;7.20;;;4.30;;
40781;SDS011;26493;51.938;7.626;2023-11-21T04:24:07;7.60;;;4.50;;
40781;SDS011;26493;51.938;7.626;2023-11-21T04:26:33;7.43;;;4.43;;
40781;SDS011;26493;51.938;7.626;2023-11-21T04:28:59;7.47;;;4.45;;
40781;SDS011;26493;51.938;7.626;2023-11-21T04:31:25;7.20;;;4.25;;
40781;SDS011;26493;51.938;7.626;2023-11-21T04:33:51;7.80;;;4.68;;
40781;SDS011;26493;51.938;7.626;2023-11-21T04:36:17;7.55;;;4.50;;
40781;SDS011;26493;51.938;7.626;2023-11-21T04:38:44;7.55;;;4.50;;
40781;SDS011;26493;51.938;7.626;2023-11-21T04:41:10;8.27;;;5.10;;
40781;SDS011;26493;51.938;7.626;2023-11-21T04:43:37;7.93;;;4.70;;
40781;SDS011;26493;51.938;7.626;2023-11-21T04:46:03;8.32;;;4.95;;
40781;SDS011;26493;51.938;7.626;2023-11-21T04:48:29;8.30;;;4.90;;
40781;SDS011;26493;51.938;7.626;2023-11-21T04:50:55;8.60;;;5.10;;
40781;SDS011;26493;51.938;7.626;2023-11-21T04:53:21;9.10;;;5.40;;
40781;SDS011;26493;51.938;7.626;2023-11-21T04:55:47;8.70;;;5.20;;
40781;SDS011;26493;51.938;7.626;2023-11-21T04:58:13;8.68;;;5.10;;
40781;SDS011;26493;51.938;7.626;2023-11-21T05:00:39;8.80;;;5.20;;
40781;SDS011;26493;51.938;7.626;2023-11-21T05:03:06;9.38;;;5.50;;
40781;SDS011;26493;51.938;7.626;2023-11-21T05:05:32;10.23;;;6.15;;
40781;SDS011;26493;51.938;7.626;2023-11-21T05:08:01;9.80;;;5.70;;
40781;SDS011;26493;51.938;7.626;2023-11-21T05:10:28;9.75;;;5.75;;
40781;SDS011;26493;51.938;7.626;2023-11-21T05:12:55;9.90;;;5.82;;
40781;SDS011;26493;51.938;7.626;2023-11-21T05:15:21;9.75;;;5.75;;
40781;SDS011;26493;51.938;7.626;2023-11-21T05:17:48;9.80;;;5.80;;
40781;SDS011;26493;51.938;7.626;2023-11-21T05:20:18;10.20;;;6.15;;
40781;SDS011;26493;51.938;7.626;2023-11-21T05:22:49;9.88;;;5.72;;
40781;SDS011;26493;51.938;7.626;2023-11-21T05:25:15;9.63;;;5.68;;
40781;SDS011;26493;51.938;7.626;2023-11-21T05:27:43;9.90;;;5.80;;
40781;SDS011;26493;51.938;7.626;2023-11-21T05:30:09;9.38;;;5.50;;
40781;SDS011;26493;51.938;7.626;2023-11-21T05:32:37;11.90;;;10.60;;
40781;SDS011;26493;51.938;7.626;2023-11-21T05:35:03;9.23;;;5.43;;
40781;SDS011;26493;51.938;7.626;2023-11-21T05:37:34;10.85;;;8.02;;
40781;SDS011;26493;51.938;7.626;2023-11-21T05:40:00;9.38;;;5.50;;
40781;SDS011;26493;51.938;7.626;2023-11-21T05:42:30;9.40;;;5.50;;
40781;SDS011;26493;51.938;7.626;2023-11-21T05:44:57;9.00;;;5.40;;
40781;SDS011;26493;51.938;7.626;2023-11-21T05:47:24;8.63;;;5.10;;
40781;SDS011;26493;51.938;7.626;2023-11-21T05:49:51;9.65;;;5.30;;
40781;SDS011;26493;51.938;7.626;2023-11-21T05:52:17;8.63;;;5.13;;
40781;SDS011;26493;51.938;7.626;2023-11-21T05:54:43;8.90;;;5.25;;
40781;SDS011;26493;51.938;7.626;2023-11-21T05:57:09;8.90;;;5.28;;
40781;SDS011;26493;51.938;7.626;2023-11-21T05:59:36;8.50;;;5.03;;
40781;SDS011;26493;51.938;7.626;2023-11-21T06:02:02;8.57;;;5.03;;
40781;SDS011;26493;51.938;7.626;2023-11-21T06:04:28;8.27;;;4.90;;
40781;SDS011;26493;51.938;7.626;2023-11-21T06:06:54;12.27;;;6.68;;
40781;SDS011;26493;51.938;7.626;2023-11-21T06:09:20;7.70;;;4.70;;
40781;SDS011;26493;51.938;7.626;2023-11-21T06:11:46;7.97;;;4.70;;
40781;SDS011;26493;51.938;7.626;2023-11-21T06:14:12;8.00;;;4.72;;
40781;SDS011;26493;51.938;7.626;2023-11-21T06:16:38;7.88;;;4.70;;
40781;SDS011;26493;51.938;7.626;2023-11-21T06:19:05;8.30;;;5.00;;
40781;SDS011;26493;51.938;7.626;2023-11-21T06:21:31;8.02;;;4.78;;
40781;SDS011;26493;51.938;7.626;2023-11-21T06:23:58;7.90;;;4.70;;
40781;SDS011;26493;51.938;7.626;2023-11-21T06:26:24;9.20;;;5.65;;
40781;SDS011;26493;51.938;7.626;2023-11-21T06:28:50;8.40;;;5.00;;
40781;SDS011;26493;51.938;7.626;2023-11-21T06:31:17;9.10;;;5.45;;
40781;SDS011;26493;51.938;7.626;2023-11-21T06:33:43;9.00;;;5.30;;
40781;SDS011;26493;51.938;7.626;2023-11-21T06:36:09;10.65;;;6.38;;
40781;SDS011;26493;51.938;7.626;2023-11-21T06:38:36;8.45;;;5.00;;
40781;SDS011;26493;51.938;7.626;2023-11-21T06:41:02;8.95;;;5.40;;
40781;SDS011;26493;51.938;7.626;2023-11-21T06:43:29;11.63;;;6.75;;
40781;SDS011;26493;51.938;7.626;2023-11-21T06:45:58;9.52;;;5.45;;
40781;SDS011;26493;51.938;7.626;2023-11-21T06:48:24;8.70;;;5.20;;
40781;SDS011;26493;51.938;7.626;2023-11-21T06:50:50;8.43;;;4.95;;
40781;SDS011;26493;51.938;7.626;2023-11-21T06:53:17;8.50;;;4.95;;
40781;SDS011;26493;51.938;7.626;2023-11-21T06:55:43;9.57;;;5.53;;
40781;SDS011;26493;51.938;7.626;2023-11-21T06:58:09;8.02;;;5.13;;
40781;SDS011;26493;51.938;7.626;2023-11-21T07:00:35;9.70;;;5.78;;
40781;SDS011;26493;51.938;7.626;2023-11-21T07:03:01;7.60;;;4.50;;
40781;SDS011;26493;51.938;7.626;2023-11-21T07:05:27;7.93;;;4.70;;
40781;SDS011;26493;51.938;7.626;2023-11-21T07:07:53;8.00;;;4.70;;
40781;SDS011;26493;51.938;7.626;2023-11-21T07:10:19;10.27;;;5.63;;
40781;SDS011;26493;51.938;7.626;2023-11-21T07:12:45;7.80;;;4.68;;
40781;SDS011;26493;51.938;7.626;2023-11-21T07:15:11;9.95;;;6.35;;
40781;SDS011;26493;51.938;7.626;2023-11-21T07:17:37;7.90;;;4.70;;
40781;SDS011;26493;51.938;7.626;2023-11-21T07:20:05;7.57;;;4.50;;
40781;SDS011;26493;51.938;7.626;2023-11-21T07:22:31;8.25;;;4.95;;
40781;SDS011;26493;51.938;7.626;2023-11-21T07:24:57;8.07;;;4.80;;
40781;SDS011;26493;51.938;7.626;2023-11-21T07:27:23;8.27;;;4.90;;
40781;SDS011;26493;51.938;7.626;2023-11-21T07:29:49;10.90;;;5.85;;
40781;SDS011;26493;51.938;7.626;2023-11-21T07:32:15;8.57;;;5.03;;
40781;SDS011;26493;51.938;7.626;2023-11-21T07:34:41;8.27;;;4.90;;
40781;SDS011;26493;51.938;7.626;2023-11-21T07:37:07;9.07;;;6.05;;
40781;SDS011;26493;51.938;7.626;2023-11-21T07:39:34;7.95;;;4.75;;
40781;SDS011;26493;51.938;7.626;2023-11-21T07:42:01;8.45;;;5.00;;
40781;SDS011;26493;51.938;7.626;2023-11-21T07:44:27;8.18;;;4.82;;
40781;SDS011;26493;51.938;7.626;2023-11-21T07:46:54;8.60;;;5.10;;
40781;SDS011;26493;51.938;7.626;2023-11-21T07:49:23;8.50;;;5.00;;
40781;SDS011;26493;51.938;7.626;2023-11-21T07:51:50;8.43;;;5.03;;
40781;SDS011;26493;51.938;7.626;2023-11-21T07:54:16;8.23;;;4.90;;
40781;SDS011;26493;51.938;7.626;2023-11-21T07:56:42;8.48;;;5.00;;
40781;SDS011;26493;51.938;7.626;2023-11-21T07:59:08;8.52;;;5.00;;
40781;SDS011;26493;51.938;7.626;2023-11-21T08:01:34;8.98;;;5.28;;
40781;SDS011;26493;51.938;7.626;2023-11-21T08:04:00;9.00;;;5.35;;
40781;SDS011;26493;51.938;7.626;2023-11-21T08:06:29;9.73;;;5.70;;
40781;SDS011;26493;51.938;7.626;2023-11-21T08:08:56;10.32;;;6.60;;
40781;SDS011;26493;51.938;7.626;2023-11-21T08:11:22;9.38;;;5.50;;
40781;SDS011;26493;51.938;7.626;2023-11-21T08:13:48;8.80;;;5.28;;
40781;SDS011;26493;51.938;7.626;2023-11-21T08:16:14;8.82;;;5.20;;
40781;SDS011;26493;51.938;7.626;2023-11-21T08:18:41;12.75;;;7.75;;
40781;SDS011;26493;51.938;7.626;2023-11-21T08:21:07;9.70;;;6.07;;
40781;SDS011;26493;51.938;7.626;2023-11-21T08:23:34;9.00;;;5.30;;
40781;SDS011;26493;51.938;7.626;2023-11-21T08:26:00;8.70;;;5.13;;
40781;SDS011;26493;51.938;7.626;2023-11-21T08:28:28;12.48;;;7.45;;
40781;SDS011;26493;51.938;7.626;2023-11-21T08:30:54;9.00;;;5.30;;
40781;SDS011;26493;51.938;7.626;2023-11-21T08:33:20;10.27;;;7.47;;
40781;SDS011;26493;51.938;7.626;2023-11-21T08:35:46;10.00;;;6.47;;
40781;SDS011;26493;51.938;7.626;2023-11-21T08:38:12;11.52;;;6.05;;
40781;SDS011;26493;51.938;7.626;2023-11-21T08:40:38;14.25;;;10.23;;
40781;SDS011;26493;51.938;7.626;2023-11-21T08:43:04;8.10;;;4.80;;
40781;SDS011;26493;51.938;7.626;2023-11-21T08:45:30;8.50;;;5.03;;
40781;SDS011;26493;51.938;7.626;2023-11-21T08:50:25;7.75;;;4.63;;
40781;SDS011;26493;51.938;7.626;2023-11-21T08:52:51;8.63;;;5.25;;
40781;SDS011;26493;51.938;7.626;2023-11-21T08:55:17;8.65;;;5.10;;
40781;SDS011;26493;51.938;7.626;2023-11-21T08:57:45;8.80;;;5.20;;
40781;SDS011;26493;51.938;7.626;2023-11-21T09:00:12;9.48;;;5.82;;
40781;SDS011;26493;51.938;7.626;2023-11-21T09:02:42;8.73;;;5.10;;
40781;SDS011;26493;51.938;7.626;2023-11-21T09:05:09;8.77;;;5.18;;
40781;SDS011;26493;51.938;7.626;2023-11-21T09:07:35;8.90;;;5.22;;
40781;SDS011;26493;51.938;7.626;2023-11-21T09:10:02;8.65;;;5.15;;
40781;SDS011;26493;51.938;7.626;2023-11-21T09:12:28;9.18;;;5.43;;
40781;SDS011;26493;51.938;7.626;2023-11-21T09:14:54;10.48;;;5.85;;
40781;SDS011;26493;51.938;7.626;2023-11-21T09:17:20;9.30;;;5.50;;
40781;SDS011;26493;51.938;7.626;2023-11-21T09:19:46;9.27;;;5.47;;
40781;SDS011;26493;51.938;7.626;2023-11-21T09:22:16;9.00;;;5.30;;
40781;SDS011;26493;51.938;7.626;2023-11-21T09:24:42;10.55;;;6.15;;
40781;SDS011;26493;51.938;7.626;2023-11-21T09:27:08;10.15;;;6.10;;
40781;SDS011;26493;51.938;7.626;2023-11-21T09:29:35;10.52;;;6.32;;
40781;SDS011;26493;51.938;7.626;2023-11-21T09:34:31;9.40;;;5.50;;
40781;SDS011;26493;51.938;7.626;2023-11-21T09:36:57;9.98;;;5.90;;
40781;SDS011;26493;51.938;7.626;2023-11-21T09:39:23;9.68;;;5.70;;
40781;SDS011;26493;51.938;7.626;2023-11-21T09:41:54;9.70;;;5.70;;
40781;SDS011;26493;51.938;7.626;2023-11-21T09:44:27;11.70;;;6.50;;
40781;SDS011;26493;51.938;7.626;2023-11-21T09:46:55;10.30;;;6.05;;
40781;SDS011;26493;51.938;7.626;2023-11-21T09:49:24;15.30;;;9.30;;
40781;SDS011;26493;51.938;7.626;2023-11-21T09:51:53;10.37;;;6.07;;
40781;SDS011;26493;51.938;7.626;2023-11-21T09:54:22;10.43;;;6.10;;
40781;SDS011;26493;51.938;7.626;2023-11-21T09:56:48;10.63;;;6.25;;
40781;SDS011;26493;51.938;7.626;2023-11-21T09:59:15;11.20;;;6.57;;
40781;SDS011;26493;51.938;7.626;2023-11-21T10:01:42;11.40;;;6.68;;
40781;SDS011;26493;51.938;7.626;2023-11-21T10:04:11;13.30;;;7.20;;
40781;SDS011;26493;51.938;7.626;2023-11-21T10:06:40;11.23;;;6.50;;
40781;SDS011;26493;51.938;7.626;2023-11-21T10:09:10;11.10;;;6.50;;
40781;SDS011;26493;51.938;7.626;2023-11-21T10:11:40;11.40;;;6.63;;
40781;SDS011;26493;51.938;7.626;2023-11-21T10:14:06;16.38;;;7.63;;
40781;SDS011;26493;51.938;7.626;2023-11-21T10:19:02;11.82;;;6.88;;
40781;SDS011;26493;51.938;7.626;2023-11-21T10:21:28;10.57;;;6.20;;
40781;SDS011;26493;51.938;7.626;2023-11-21T10:23:55;11.40;;;6.65;;
40781;SDS011;26493;51.938;7.626;2023-11-21T10:26:22;11.70;;;7.00;;
40781;SDS011;26493;51.938;7.626;2023-11-21T10:28:58;11.63;;;6.80;;
40781;SDS011;26493;51.938;7.626;2023-11-21T10:31:28;11.55;;;6.72;;
40781;SDS011;26493;51.938;7.626;2023-11-21T10:33:55;12.55;;;7.40;;
40781;SDS011;26493;51.938;7.626;2023-11-21T10:36:25;12.45;;;7.45;;
40781;SDS011;26493;51.938;7.626;2023-11-21T10:38:52;12.63;;;7.30;;
40781;SDS011;26493;51.938;7.626;2023-11-21T10:41:18;11.60;;;6.72;;
40781;SDS011;26493;51.938;7.626;2023-11-21T10:43:45;12.20;;;7.10;;
40781;SDS011;26493;51.938;7.626;2023-11-21T10:46:11;12.20;;;7.10;;
40781;SDS011;26493;51.938;7.626;2023-11-21T10:48:37;14.63;;;10.02;;
40781;SDS011;26493;51.938;7.626;2023-11-21T10:51:06;12.68;;;7.38;;
40781;SDS011;26493;51.938;7.626;2023-11-21T10:53:32;15.50;;;8.75;;
40781;SDS011;26493;51.938;7.626;2023-11-21T10:56:05;12.50;;;7.20;;
40781;SDS011;26493;51.938;7.626;2023-11-21T10:58:32;12.82;;;7.38;;
40781;SDS011;26493;51.938;7.626;2023-11-21T11:00:58;11.52;;;6.70;;
40781;SDS011;26493;51.938;7.626;2023-11-21T11:03:25;11.73;;;6.85;;
40781;SDS011;26493;51.938;7.626;2023-11-21T11:05:51;12.52;;;7.85;;
40781;SDS011;26493;51.938;7.626;2023-11-21T11:08:20;11.20;;;6.50;;
40781;SDS011;26493;51.938;7.626;2023-11-21T11:10:51;12.02;;;7.00;;
40781;SDS011;26493;51.938;7.626;2023-11-21T11:13:17;12.32;;;7.10;;
40781;SDS011;26493;51.938;7.626;2023-11-21T11:15:46;11.80;;;6.90;;
40781;SDS011;26493;51.938;7.626;2023-11-21T11:18:13;11.73;;;6.80;;
40781;SDS011;26493;51.938;7.626;2023-11-21T11:20:41;12.00;;;6.90;;
40781;SDS011;26493;51.938;7.626;2023-11-21T11:38:12;11.20;;;6.57;;
40781;SDS011;26493;51.938;7.626;2023-11-21T11:40:41;11.60;;;6.80;;
40781;SDS011;26493;51.938;7.626;2023-11-21T11:43:10;11.25;;;6.60;;
40781;SDS011;26493;51.938;7.626;2023-11-21T11:45:36;11.70;;;6.82;;
40781;SDS011;26493;51.938;7.626;2023-11-21T11:48:06;11.40;;;6.65;;
40781;SDS011;26493;51.938;7.626;2023-11-21T11:50:33;11.60;;;6.78;;
40781;SDS011;26493;51.938;7.626;2023-11-21T11:53:12;11.20;;;6.70;;
40781;SDS011;26493;51.938;7.626;2023-11-21T11:55:39;11.38;;;6.65;;
40781;SDS011;26493;51.938;7.626;2023-11-21T11:58:07;13.15;;;8.25;;
40781;SDS011;26493;51.938;7.626;2023-11-21T12:00:34;12.38;;;7.20;;
40781;SDS011;26493;51.938;7.626;2023-11-21T12:03:05;11.25;;;6.85;;
40781;SDS011;26493;51.938;7.626;2023-11-21T12:05:32;12.13;;;6.90;;
40781;SDS011;26493;51.938;7.626;2023-11-21T12:08:04;11.93;;;6.95;;
40781;SDS011;26493;51.938;7.626;2023-11-21T12:10:32;10.50;;;6.20;;
40781;SDS011;26493;51.938;7.626;2023-11-21T12:12:59;11.07;;;6.50;;
40781;SDS011;26493;51.938;7.626;2023-11-21T12:15:26;10.60;;;6.20;;
40781;SDS011;26493;51.938;7.626;2023-11-21T12:17:56;11.43;;;7.97;;
40781;SDS011;26493;51.938;7.626;2023-11-21T12:20:25;11.45;;;6.68;;
40781;SDS011;26493;51.938;7.626;2023-11-21T12:22:55;11.43;;;6.70;;
40781;SDS011;26493;51.938;7.626;2023-11-21T12:25:24;11.10;;;6.50;;
40781;SDS011;26493;51.938;7.626;2023-11-21T12:27:54;12.10;;;7.10;;
40781;SDS011;26493;51.938;7.626;2023-11-21T12:30:21;12.10;;;7.00;;
40781;SDS011;26493;51.938;7.626;2023-11-21T12:32:53;12.38;;;7.22;;
40781;SDS011;26493;51.938;7.626;2023-11-21T12:35:21;11.82;;;6.90;;
40781;SDS011;26493;51.938;7.626;2023-11-21T12:37:47;12.00;;;7.80;;
40781;SDS011;26493;51.938;7.626;2023-11-21T12:40:16;11.82;;;6.88;;
40781;SDS011;26493;51.938;7.626;2023-11-21T12:42:43;11.50;;;6.70;;
40781;SDS011;26493;51.938;7.626;2023-11-21T12:45:30;11.65;;;6.80;;
40781;SDS011;26493;51.938;7.626;2023-11-21T12:47:56;11.82;;;6.93;;
40781;SDS011;26493;51.938;7.626;2023-11-21T12:50:26;11.48;;;6.70;;
40781;SDS011;26493;51.938;7.626;2023-11-21T12:55:20;11.43;;;6.68;;
40781;SDS011;26493;51.938;7.626;2023-11-21T12:57:50;11.93;;;6.93;;
40781;SDS011;26493;51.938;7.626;2023-11-21T13:00:17;11.05;;;6.45;;
40781;SDS011;26493;51.938;7.626;2023-11-21T13:02:54;11.13;;;6.55;;
40781;SDS011;26493;51.938;7.626;2023-11-21T13:05:41;11.27;;;6.60;;
40781;SDS011;26493;51.938;7.626;2023-11-21T13:08:09;11.05;;;6.47;;
40781;SDS011;26493;51.938;7.626;2023-11-21T13:10:38;13.18;;;8.95;;
40781;SDS011;26493;51.938;7.626;2023-11-21T13:13:05;12.73;;;8.80;;
40781;SDS011;26493;51.938;7.626;2023-11-21T13:15:33;12.25;;;7.10;;
40781;SDS011;26493;51.938;7.626;2023-11-21T13:18:01;11.70;;;6.80;;
40781;SDS011;26493;51.938;7.626;2023-11-21T13:20:28;11.68;;;6.80;;
40781;SDS011;26493;51.938;7.626;2023-11-21T13:22:57;11.90;;;7.00;;
40781;SDS011;26493;51.938;7.626;2023-11-21T13:25:24;11.13;;;6.50;;
40781;SDS011;26493;51.938;7.626;2023-11-21T13:27:52;11.25;;;6.60;;
40781;SDS011;26493;51.938;7.626;2023-11-21T13:30:19;11.20;;;6.55;;
40781;SDS011;26493;51.938;7.626;2023-11-21T13:32:52;10.65;;;6.25;;
40781;SDS011;26493;51.938;7.626;2023-11-21T13:35:18;10.77;;;6.45;;
40781;SDS011;26493;51.938;7.626;2023-11-21T13:37:55;9.88;;;5.82;;
40781;SDS011;26493;51.938;7.626;2023-11-21T13:40:25;10.20;;;6.00;;
40781;SDS011;26493;51.938;7.626;2023-11-21T13:42:55;10.45;;;6.13;;
40781;SDS011;26493;51.938;7.626;2023-11-21T13:45:24;10.50;;;6.20;;
40781;SDS011;26493;51.938;7.626;2023-11-21T13:47:52;10.85;;;6.40;;
40781;SDS011;26493;51.938;7.626;2023-11-21T13:50:30;15.38;;;9.85;;
40781;SDS011;26493;51.938;7.626;2023-11-21T13:53:00;10.77;;;6.30;;
40781;SDS011;26493;51.938;7.626;2023-11-21T13:55:28;11.88;;;7.55;;
40781;SDS011;26493;51.938;7.626;2023-11-21T13:57:54;10.70;;;6.30;;
40781;SDS011;26493;51.938;7.626;2023-11-21T14:00:21;10.95;;;6.38;;
40781;SDS011;26493;51.938;7.626;2023-11-21T14:03:05;11.13;;;6.65;;
40781;SDS011;26493;51.938;7.626;2023-11-21T14:05:41;10.95;;;6.53;;
40781;SDS011;26493;51.938;7.626;2023-11-21T14:08:08;10.75;;;6.30;;
40781;SDS011;26493;51.938;7.626;2023-11-21T14:10:36;10.48;;;6.18;;
40781;SDS011;26493;51.938;7.626;2023-11-21T14:13:08;10.80;;;6.78;;
40781;SDS011;26493;51.938;7.626;2023-11-21T14:15:35;11.88;;;7.50;;
40781;SDS011;26493;51.938;7.626;2023-11-21T14:18:11;10.60;;;6.20;;
40781;SDS011;26493;51.938;7.626;2023-11-21T14:20:39;10.80;;;6.30;;
40781;SDS011;26493;51.938;7.626;2023-11-21T14:23:06;11.30;;;6.70;;
40781;SDS011;26493;51.938;7.626;2023-11-21T14:25:36;12.75;;;7.57;;
40781;SDS011;26493;51.938;7.626;2023-11-21T14:28:05;11.68;;;7.03;;
40781;SDS011;26493;51.938;7.626;2023-11-21T14:30:31;11.10;;;6.45;;
40781;SDS011;26493;51.938;7.626;2023-11-21T14:33:00;11.13;;;6.50;;
40781;SDS011;26493;51.938;7.626;2023-11-21T14:35:26;10.40;;;6.10;;
40781;SDS011;26493;51.938;7.626;2023-11-21T14:37:55;11.50;;;7.00;;
40781;SDS011;26493;51.938;7.626;2023-11-21T14:40:23;14.93;;;8.98;;
40781;SDS011;26493;51.938;7.626;2023-11-21T14:42:49;11.02;;;6.50;;
40781;SDS011;26493;51.938;7.626;2023-11-21T14:45:18;10.90;;;6.40;;
40781;SDS011;26493;51.938;7.626;2023-11-21T14:47:48;11.10;;;6.50;;
40781;SDS011;26493;51.938;7.626;2023-11-21T14:50:41;10.95;;;6.40;;
40781;SDS011;26493;51.938;7.626;2023-11-21T14:53:07;11.88;;;7.00;;
40781;SDS011;26493;51.938;7.626;2023-11-21T14:55:34;11.10;;;6.50;;
40781;SDS011;26493;51.938;7.626;2023-11-21T14:58:18;12.27;;;7.13;;
40781;SDS011;26493;51.938;7.626;2023-11-21T15:00:54;11.35;;;6.65;;
40781;SDS011;26493;51.938;7.626;2023-11-21T15:03:23;12.13;;;7.93;;
40781;SDS011;26493;51.938;7.626;2023-11-21T15:06:09;11.48;;;6.80;;
40781;SDS011;26493;51.938;7.626;2023-11-21T15:08:51;11.60;;;6.80;;